createdAt,value
2018-03-04T00:02:26.671Z,99937.91
2018-03-04T00:04:55.636Z,99931.59
2018-03-04T00:07:24.631Z,99918.34
2018-03-04T00:09:53.668Z,99894.81
2018-03-04T00:13:51.711Z,99838.28
2018-03-04T00:16:20.670Z,99844.55
2018-03-04T00:18:49.671Z,99842.74
2018-03-04T00:21:18.692Z,99850.17
2018-03-04T00:23:47.723Z,99849.61
2018-03-04T00:26:17.158Z,99858.63
2018-03-04T00:28:46.669Z,99865.28
2018-03-04T00:31:15.717Z,99869.05
2018-03-04T00:33:44.683Z,99864.48
2018-03-04T00:36:13.674Z,99864.77
2018-03-04T00:38:42.700Z,99859.11
2018-03-04T00:41:11.687Z,99848.98
2018-03-04T00:43:40.723Z,99837.58
2018-03-04T00:46:09.677Z,99841.66
2018-03-04T00:48:38.715Z,99837.97
2018-03-04T00:51:07.727Z,99817.14
2018-03-04T00:53:36.693Z,99815.05
2018-03-04T00:56:05.711Z,99809.73
2018-03-04T00:58:34.684Z,99814.11
2018-03-04T01:01:03.701Z,99802.03
2018-03-04T01:03:32.677Z,99798.98
2018-03-04T01:06:01.665Z,99798.66
2018-03-04T01:08:30.642Z,99808.09
2018-03-04T01:10:59.701Z,99809.39
2018-03-04T01:13:28.699Z,99808.24
2018-03-04T01:15:57.732Z,99806.92
2018-03-04T01:18:26.639Z,99799.97
2018-03-04T01:20:55.704Z,99801.85
2018-03-04T01:23:24.651Z,99788.83
2018-03-04T01:28:04.640Z,99792.69
2018-03-04T01:30:33.690Z,99787.00
2018-03-04T01:35:28.743Z,99775.89
2018-03-04T01:37:57.726Z,99782.15
2018-03-04T01:40:26.773Z,99783.26
2018-03-04T01:44:38.637Z,99770.80
2018-03-04T01:47:07.675Z,99775.89
2018-03-04T01:49:36.673Z,99775.76
2018-03-04T01:52:05.639Z,99765.16
2018-03-04T01:54:34.627Z,99760.98
2018-03-04T01:57:03.639Z,99759.69
2018-03-04T02:00:30.698Z,99769.97
2018-03-04T02:02:59.674Z,99759.78
2018-03-04T02:05:28.664Z,99764.15
2018-03-04T02:07:57.687Z,99758.20
2018-03-04T02:10:26.729Z,99767.73
2018-03-04T02:15:08.689Z,99765.56
2018-03-04T02:17:37.667Z,99757.42
2018-03-04T02:20:06.725Z,99747.36
2018-03-04T02:22:35.691Z,99744.00
2018-03-04T02:25:04.705Z,99733.44
2018-03-04T02:27:33.790Z,99727.61
2018-03-04T02:30:02.778Z,99727.70
2018-03-04T02:32:31.743Z,99717.44
2018-03-04T02:35:00.773Z,99734.37
2018-03-04T02:39:06.837Z,99723.18
2018-03-04T02:41:35.743Z,99722.00
2018-03-04T02:44:04.751Z,99727.56
2018-03-04T02:46:34.448Z,99718.11
2018-03-04T02:49:03.540Z,99722.53
2018-03-04T02:57:46.501Z,99740.93
2018-03-04T03:01:48.525Z,99735.66
2018-03-04T03:04:17.649Z,99740.80
2018-03-04T03:06:46.655Z,99744.30
2018-03-04T03:09:15.763Z,99744.02
2018-03-04T03:11:45.282Z,99742.27
2018-03-04T03:14:14.289Z,99739.15
2018-03-04T03:16:42.748Z,99740.66
2018-03-04T03:19:42.593Z,99735.00
2018-03-04T03:24:09.570Z,99735.25
2018-03-04T03:26:38.645Z,99738.06
2018-03-04T03:29:07.681Z,99735.25
2018-03-04T03:31:36.647Z,99730.84
2018-03-04T03:34:05.621Z,99731.40
2018-03-04T03:36:34.627Z,99732.05
2018-03-04T03:39:03.631Z,99738.12
2018-03-04T03:41:32.697Z,99745.28
2018-03-04T03:44:01.693Z,99741.60
2018-03-04T03:46:30.652Z,99749.18
2018-03-04T03:48:59.661Z,99750.49
2018-03-04T03:51:28.655Z,99743.98
2018-03-04T03:53:57.675Z,99746.58
2018-03-04T03:56:26.639Z,99756.89
2018-03-04T03:58:55.647Z,99757.13
2018-03-04T04:01:24.628Z,99757.34
2018-03-04T04:04:24.032Z,99754.27
2018-03-04T04:06:52.743Z,99750.59
2018-03-04T04:09:21.645Z,99751.33
2018-03-04T04:11:50.743Z,99746.64
2018-03-04T04:14:19.777Z,99743.71
2018-03-04T04:16:48.742Z,99749.00
2018-03-04T04:19:17.662Z,99745.64
2018-03-04T04:22:24.687Z,99738.16
2018-03-04T04:24:53.626Z,99737.13
2018-03-04T04:27:22.654Z,99736.88
2018-03-04T04:29:51.721Z,99739.21
2018-03-04T04:32:20.763Z,99725.72
2018-03-04T04:34:49.744Z,99724.06
2018-03-04T04:37:18.895Z,99727.36
2018-03-04T04:39:48.172Z,99731.25
2018-03-04T04:42:16.710Z,99736.88
2018-03-04T04:44:45.876Z,99742.75
2018-03-04T04:47:15.567Z,99741.39
2018-03-04T04:49:44.776Z,99740.61
2018-03-04T04:52:13.886Z,99741.66
2018-03-04T04:54:42.630Z,99740.18
2018-03-04T04:57:11.679Z,99741.37
2018-03-04T04:59:40.804Z,99745.73
2018-03-04T05:02:09.721Z,99753.31
2018-03-04T05:04:38.756Z,99764.66
2018-03-04T05:07:54.767Z,99766.88
2018-03-04T05:10:23.796Z,99773.03
2018-03-04T05:12:52.776Z,99773.06
2018-03-04T05:16:50.521Z,99793.14
2018-03-04T05:19:19.679Z,99791.38
2018-03-04T05:21:48.734Z,99792.05
2018-03-04T05:24:17.680Z,99789.55
2018-03-04T05:26:46.775Z,99798.81
2018-03-04T05:29:15.676Z,99803.71
2018-03-04T05:31:44.683Z,99797.64
2018-03-04T05:34:13.735Z,99805.75
2018-03-04T05:36:42.679Z,99816.06
2018-03-04T05:41:00.730Z,99823.69
2018-03-04T05:43:29.720Z,99830.95
2018-03-04T05:45:58.687Z,99832.95
2018-03-04T05:48:27.705Z,99835.26
2018-03-04T05:50:56.688Z,99838.70
2018-03-04T05:53:25.738Z,99841.13
2018-03-04T05:57:48.666Z,99847.75
2018-03-04T06:00:17.655Z,99856.06
2018-03-04T06:02:46.674Z,99864.23
2018-03-04T06:05:15.743Z,99863.91
2018-03-04T06:11:22.438Z,99854.02
2018-03-04T06:13:51.443Z,99845.72
2018-03-04T06:16:20.437Z,99852.52
2018-03-04T06:18:49.647Z,99846.13
2018-03-04T06:21:18.652Z,99846.30
2018-03-04T06:23:47.863Z,99840.02
2018-03-04T06:26:16.646Z,99838.11
2018-03-04T06:28:45.685Z,99837.02
2018-03-04T06:31:14.632Z,99834.37
2018-03-04T06:33:43.707Z,99840.55
2018-03-04T06:36:12.703Z,99855.33
2018-03-04T06:38:41.812Z,99855.08
2018-03-04T06:41:10.666Z,99867.73
2018-03-04T06:43:39.616Z,99883.91
2018-03-04T06:46:08.664Z,99880.16
2018-03-04T06:48:37.710Z,99878.36
2018-03-04T06:51:06.643Z,99884.16
2018-03-04T06:53:35.641Z,99884.83
2018-03-04T06:58:17.774Z,99898.83
2018-03-04T07:00:46.731Z,99897.56
2018-03-04T07:03:15.629Z,99908.95
2018-03-04T07:05:44.687Z,99902.20
2018-03-04T07:08:13.637Z,99894.87
2018-03-04T07:10:42.619Z,99897.52
2018-03-04T07:15:29.662Z,99896.22
2018-03-04T07:17:58.649Z,99900.34
2018-03-04T07:20:27.679Z,99904.70
2018-03-04T07:22:56.752Z,99923.03
2018-03-04T07:25:25.635Z,99928.47
2018-03-04T07:27:54.678Z,99940.19
2018-03-04T07:30:23.616Z,99940.08
2018-03-04T07:32:52.619Z,99940.16
2018-03-04T07:35:21.611Z,99955.03
2018-03-04T07:37:50.649Z,99952.58
2018-03-04T07:40:19.694Z,99965.03
2018-03-04T07:42:48.631Z,99977.69
2018-03-04T07:45:17.565Z,99985.11
2018-03-04T07:49:33.607Z,100002.67
2018-03-04T07:57:21.689Z,100014.98
2018-03-04T08:00:25.413Z,100021.27
2018-03-04T08:02:54.418Z,100023.23
2018-03-04T08:05:23.641Z,100023.74
2018-03-04T08:07:52.666Z,100030.68
2018-03-04T08:10:21.629Z,100020.25
2018-03-04T08:12:50.651Z,100021.99
2018-03-04T08:17:39.419Z,100020.84
2018-03-04T08:20:08.420Z,100031.32
2018-03-04T08:22:37.639Z,100045.98
2018-03-04T08:25:18.629Z,100063.78
2018-03-04T08:27:59.424Z,100073.65
2018-03-04T08:30:28.590Z,100067.70
2018-03-04T08:32:57.623Z,100075.06
2018-03-04T08:35:26.736Z,100079.89
2018-03-04T08:37:55.635Z,100094.02
2018-03-04T08:41:35.640Z,100100.60
2018-03-04T08:50:01.624Z,100101.42
2018-03-04T08:52:30.623Z,100105.36
2018-03-04T08:54:59.681Z,100110.20
2018-03-04T08:57:28.646Z,100115.00
2018-03-04T08:59:57.693Z,100133.31
2018-03-04T09:02:26.641Z,100133.38
2018-03-04T09:04:55.627Z,100140.50
2018-03-04T09:08:18.655Z,100147.19
2018-03-04T09:10:47.660Z,100152.62
2018-03-04T09:13:16.624Z,100164.91
2018-03-04T09:15:45.640Z,100168.12
2018-03-04T09:18:14.628Z,100176.61
2018-03-04T09:20:43.624Z,100180.38
2018-03-04T09:25:29.424Z,100177.81
2018-03-04T09:27:58.425Z,100181.21
2018-03-04T09:30:27.428Z,100189.61
2018-03-04T09:32:56.427Z,100195.34
2018-03-04T09:35:25.698Z,100195.16
2018-03-04T09:37:54.628Z,100199.06
2018-03-04T09:41:14.429Z,100204.37
2018-03-04T09:43:43.405Z,100219.53
2018-03-04T09:46:12.581Z,100223.52
2018-03-04T09:48:41.627Z,100227.47
2018-03-04T09:51:10.608Z,100229.92
2018-03-04T09:53:39.607Z,100235.32
2018-03-04T09:56:08.660Z,100240.25
2018-03-04T10:01:20.728Z,100245.99
2018-03-04T10:03:49.669Z,100258.73
2018-03-04T10:06:18.679Z,100263.39
2018-03-04T10:08:47.657Z,100261.63
2018-03-04T10:11:16.617Z,100264.98
2018-03-04T10:13:45.632Z,100273.31
2018-03-04T10:18:34.611Z,100285.86
2018-03-04T10:21:03.649Z,100284.51
2018-03-04T10:23:32.684Z,100292.00
2018-03-04T10:26:01.635Z,100295.12
2018-03-04T10:28:30.691Z,100302.39
2018-03-04T10:32:12.725Z,100303.88
2018-03-04T10:34:41.655Z,100304.23
2018-03-04T10:37:10.740Z,100306.81
2018-03-04T10:39:39.708Z,100314.28
2018-03-04T10:42:08.633Z,100321.50
2018-03-04T10:44:37.705Z,100327.34
2018-03-04T10:47:06.685Z,100320.92
2018-03-04T10:49:35.651Z,100316.59
2018-03-04T10:52:04.735Z,100319.94
2018-03-04T10:54:33.615Z,100325.30
2018-03-04T10:57:02.670Z,100319.61
2018-03-04T10:59:31.671Z,100329.59
2018-03-04T11:02:04.835Z,100334.72
2018-03-04T11:05:28.153Z,100332.55
2018-03-04T11:07:57.655Z,100338.08
2018-03-04T11:10:26.710Z,100342.80
2018-03-04T11:13:42.667Z,100346.41
2018-03-04T11:16:11.635Z,100352.77
2018-03-04T11:18:40.655Z,100359.87
2018-03-04T11:21:11.516Z,100364.26
2018-03-04T11:23:40.708Z,100375.61
2018-03-04T11:26:10.470Z,100372.50
2018-03-04T11:28:39.690Z,100378.89
2018-03-04T11:31:08.729Z,100371.88
2018-03-04T11:33:37.691Z,100377.86
2018-03-04T11:38:54.676Z,100392.86
2018-03-04T11:41:23.719Z,100396.38
2018-03-04T11:43:52.663Z,100406.09
2018-03-04T11:46:21.723Z,100408.40
2018-03-04T11:48:50.675Z,100411.38
2018-03-04T11:51:19.697Z,100418.28
2018-03-04T11:53:48.663Z,100430.80
2018-03-04T11:57:35.576Z,100426.11
2018-03-04T12:00:04.659Z,100426.34
2018-03-04T12:02:33.636Z,100428.65
2018-03-04T12:05:02.864Z,100429.91
2018-03-04T12:09:05.755Z,100425.71
2018-03-04T12:11:34.693Z,100439.66
2018-03-04T12:14:03.680Z,100440.17
2018-03-04T12:16:32.644Z,100439.12
2018-03-04T12:19:01.679Z,100437.70
2018-03-04T12:21:30.739Z,100442.27
2018-03-04T12:23:59.711Z,100436.75
2018-03-04T12:26:28.681Z,100444.81
2018-03-04T12:28:57.711Z,100454.36
2018-03-04T12:31:26.699Z,100452.66
2018-03-04T12:33:55.663Z,100448.90
2018-03-04T12:37:10.684Z,100454.28
2018-03-04T12:41:44.683Z,100460.72
2018-03-04T12:44:13.694Z,100457.78
2018-03-04T12:46:42.732Z,100461.63
2018-03-04T12:49:11.696Z,100459.86
2018-03-04T12:51:40.966Z,100469.17
2018-03-04T12:54:09.181Z,100468.73
2018-03-04T12:56:38.640Z,100472.97
2018-03-04T12:59:07.755Z,100468.10
2018-03-04T13:01:36.705Z,100475.06
2018-03-04T13:06:17.054Z,100488.36
2018-03-04T13:08:45.590Z,100489.20
2018-03-04T13:11:14.692Z,100491.89
2018-03-04T13:13:43.719Z,100497.80
2018-03-04T13:16:12.732Z,100498.05
2018-03-04T13:18:41.768Z,100505.03
2018-03-04T13:21:10.749Z,100509.28
2018-03-04T13:23:39.696Z,100519.05
2018-03-04T13:26:08.698Z,100523.03
2018-03-04T13:29:24.476Z,100534.81
2018-03-04T13:31:54.428Z,100541.09
2018-03-04T13:34:23.728Z,100534.64
2018-03-04T13:36:52.654Z,100530.34
2018-03-04T13:39:21.645Z,100531.97
2018-03-04T13:41:50.710Z,100525.14
2018-03-04T13:44:19.729Z,100530.23
2018-03-04T13:46:48.687Z,100533.27
2018-03-04T13:49:17.676Z,100532.64
2018-03-04T13:51:46.653Z,100538.47
2018-03-04T13:54:15.705Z,100541.69
2018-03-04T13:58:30.695Z,100539.97
2018-03-04T14:00:59.705Z,100544.38
2018-03-04T14:03:28.666Z,100542.92
2018-03-04T14:05:57.651Z,100545.85
2018-03-04T14:08:26.657Z,100556.81
2018-03-04T14:13:16.752Z,100552.30
2018-03-04T14:15:45.649Z,100559.91
2018-03-04T14:18:14.651Z,100562.61
2018-03-04T14:20:43.722Z,100568.45
2018-03-04T14:23:12.691Z,100577.78
2018-03-04T14:25:41.721Z,100590.08
2018-03-04T14:28:10.623Z,100599.78
2018-03-04T14:30:39.679Z,100596.98
2018-03-04T14:33:08.675Z,100603.08
2018-03-04T14:35:37.693Z,100608.16
2018-03-04T14:38:06.620Z,100611.88
2018-03-04T14:40:35.623Z,100610.84
2018-03-04T14:43:04.879Z,100613.30
2018-03-04T14:45:33.660Z,100627.61
2018-03-04T14:48:02.595Z,100637.09
2018-03-04T14:50:31.655Z,100642.70
2018-03-04T14:53:00.637Z,100645.15
2018-03-04T14:55:29.668Z,100647.55
2018-03-04T14:57:58.624Z,100642.73
2018-03-04T15:00:27.643Z,100650.66
2018-03-04T15:02:56.650Z,100654.55
2018-03-04T15:05:25.634Z,100657.69
2018-03-04T15:07:54.657Z,100654.31
2018-03-04T15:10:23.643Z,100660.42
2018-03-04T15:12:52.708Z,100666.22
2018-03-04T15:15:21.635Z,100657.87
2018-03-04T15:17:50.657Z,100656.03
2018-03-04T15:20:19.632Z,100659.53
2018-03-04T15:22:48.644Z,100659.95
2018-03-04T15:25:17.628Z,100667.30
2018-03-04T15:27:46.639Z,100667.58
2018-03-04T15:30:15.760Z,100667.73
2018-03-04T15:32:44.643Z,100665.69
2018-03-04T15:35:13.655Z,100657.98
2018-03-04T15:37:42.663Z,100663.38
2018-03-04T15:40:11.727Z,100671.44
2018-03-04T15:42:40.683Z,100666.25
2018-03-04T15:47:27.518Z,100685.98
2018-03-04T15:49:56.608Z,100694.66
2018-03-04T15:52:25.703Z,100701.64
2018-03-04T15:54:54.651Z,100706.23
2018-03-04T15:57:23.685Z,100708.12
2018-03-04T15:59:52.649Z,100710.91
2018-03-04T16:03:41.727Z,100724.42
2018-03-04T16:10:59.692Z,100757.22
2018-03-04T16:13:28.697Z,100755.25
2018-03-04T16:15:57.741Z,100752.28
2018-03-04T16:18:27.580Z,100776.45
2018-03-04T16:23:10.549Z,100789.84
2018-03-04T16:25:39.920Z,100786.81
2018-03-04T16:28:08.529Z,100778.81
2018-03-04T16:30:37.707Z,100788.69
2018-03-04T16:33:06.764Z,100793.59
2018-03-04T16:35:35.890Z,100802.92
2018-03-04T16:38:04.734Z,100810.95
2018-03-04T16:40:33.771Z,100820.53
2018-03-04T16:43:02.775Z,100816.50
2018-03-04T16:45:31.758Z,100817.48
2018-03-04T16:48:01.333Z,100816.63
2018-03-04T16:50:30.519Z,100826.46
2018-03-04T16:54:32.867Z,100834.76
2018-03-04T16:57:02.340Z,100830.66
2018-03-04T17:01:30.760Z,100844.25
2018-03-04T17:03:59.711Z,100846.14
2018-03-04T17:06:29.345Z,100845.08
2018-03-04T17:08:58.708Z,100832.64
2018-03-04T17:11:27.701Z,100841.98
2018-03-04T17:13:56.760Z,100853.05
2018-03-04T17:16:25.764Z,100849.41
2018-03-04T17:18:55.296Z,100840.37
2018-03-04T17:21:24.656Z,100843.00
2018-03-04T17:23:53.720Z,100839.86
2018-03-04T17:26:22.807Z,100830.77
2018-03-04T17:28:51.883Z,100831.59
2018-03-04T17:31:21.318Z,100835.33
2018-03-04T17:33:50.721Z,100834.81
2018-03-04T17:36:20.167Z,100831.91
2018-03-04T17:38:49.700Z,100833.36
2018-03-04T17:42:20.715Z,100840.73
2018-03-04T17:44:49.713Z,100857.48
2018-03-04T17:48:36.746Z,100869.00
2018-03-04T17:51:06.699Z,100882.26
2018-03-04T17:53:36.204Z,100880.04
2018-03-04T17:57:27.707Z,100880.73
2018-03-04T17:59:57.729Z,100874.34
2018-03-04T18:02:26.689Z,100874.19
2018-03-04T18:04:55.651Z,100873.54
2018-03-04T18:07:24.681Z,100867.48
2018-03-04T18:09:53.695Z,100859.63
2018-03-04T18:12:22.744Z,100859.85
2018-03-04T18:14:51.771Z,100847.53
2018-03-04T18:17:20.690Z,100848.58
2018-03-04T18:19:49.667Z,100842.70
2018-03-04T18:22:18.758Z,100851.64
2018-03-04T18:24:47.648Z,100855.96
2018-03-04T18:27:16.625Z,100867.08
2018-03-04T18:29:46.200Z,100878.54
2018-03-04T18:32:15.623Z,100886.60
2018-03-04T18:34:44.615Z,100894.52
2018-03-04T18:37:13.626Z,100904.89
2018-03-04T18:39:42.747Z,100909.55
2018-03-04T18:42:11.855Z,100907.73
2018-03-04T18:44:40.690Z,100901.00
2018-03-04T18:47:10.050Z,100901.28
2018-03-04T18:49:39.624Z,100897.81
2018-03-04T18:52:08.623Z,100906.75
2018-03-04T18:54:37.623Z,100912.80
2018-03-04T18:57:06.602Z,100913.72
2018-03-04T19:01:44.657Z,100914.06
2018-03-04T19:04:13.660Z,100925.59
2018-03-04T19:06:42.684Z,100931.20
2018-03-04T19:09:11.660Z,100928.86
2018-03-04T19:11:40.578Z,100920.79
2018-03-04T19:14:09.633Z,100927.36
2018-03-04T19:16:39.047Z,100918.68
2018-03-04T19:19:08.660Z,100918.87
2018-03-04T19:21:37.687Z,100954.52
2018-03-04T19:24:06.673Z,100962.89
2018-03-04T19:26:35.660Z,100974.69
2018-03-04T19:29:04.757Z,100988.19
2018-03-04T19:31:33.707Z,100963.91
2018-03-04T19:34:02.667Z,100960.28
2018-03-04T19:36:31.688Z,100950.31
2018-03-04T19:39:00.764Z,100936.15
2018-03-04T19:41:29.779Z,100927.36
2018-03-04T19:43:58.661Z,100936.22
2018-03-04T19:46:27.678Z,100942.08
2018-03-04T19:48:56.631Z,100936.88
2018-03-04T19:51:25.661Z,100936.64
2018-03-04T19:53:54.641Z,100944.84
2018-03-04T19:56:23.623Z,100949.05
2018-03-04T19:58:52.679Z,100959.81
2018-03-04T20:01:21.618Z,100968.21
2018-03-04T20:03:50.697Z,100967.17
2018-03-04T20:06:20.151Z,100984.14
2018-03-04T20:08:49.434Z,100992.00
2018-03-04T20:13:12.647Z,101006.89
2018-03-04T20:15:41.651Z,101012.56
2018-03-04T20:18:10.648Z,101015.23
2018-03-04T20:20:39.671Z,101006.53
2018-03-04T20:23:08.775Z,101004.23
2018-03-04T20:25:37.687Z,100983.93
2018-03-04T20:28:06.675Z,100981.98
2018-03-04T20:30:35.687Z,100988.69
2018-03-04T20:33:04.755Z,101017.08
2018-03-04T20:35:33.857Z,101000.56
2018-03-04T20:38:02.699Z,100972.51
2018-03-04T20:40:31.691Z,100971.34
2018-03-04T20:43:01.178Z,100987.30
2018-03-04T20:45:30.160Z,100988.17
2018-03-04T20:49:57.517Z,101015.61
2018-03-04T20:52:26.709Z,101038.55
2018-03-04T20:54:55.704Z,101043.42
2018-03-04T20:57:24.687Z,101041.09
2018-03-04T20:59:53.682Z,101047.15
2018-03-04T21:02:22.752Z,101055.81
2018-03-04T21:04:51.740Z,101055.44
2018-03-04T21:10:57.780Z,101044.56
2018-03-04T21:13:26.699Z,101038.20
2018-03-04T21:15:55.719Z,101036.86
2018-03-04T21:18:25.573Z,101028.12
2018-03-04T21:20:54.661Z,101039.23
2018-03-04T21:23:23.677Z,101037.00
2018-03-04T21:25:52.635Z,101037.58
2018-03-04T21:28:21.636Z,101040.39
2018-03-04T21:30:50.671Z,101031.16
2018-03-04T21:33:19.632Z,101031.32
2018-03-04T21:35:48.637Z,101041.96
2018-03-04T21:38:17.635Z,101030.48
2018-03-04T21:42:48.531Z,101028.34
2018-03-04T21:45:17.656Z,101029.81
2018-03-04T21:47:46.647Z,101033.24
2018-03-04T21:50:15.661Z,101036.12
2018-03-04T21:52:44.692Z,101040.48
2018-03-04T21:55:13.712Z,101038.03
2018-03-04T21:59:29.670Z,101030.34
2018-03-04T22:01:58.640Z,101031.37
2018-03-04T22:04:27.651Z,101032.16
2018-03-04T22:06:56.687Z,101027.41
2018-03-04T22:09:25.673Z,101030.63
2018-03-04T22:11:54.676Z,101031.01
2018-03-04T22:14:23.429Z,101038.00
2018-03-04T22:16:52.639Z,101038.70
2018-03-04T22:19:21.657Z,101044.78
2018-03-04T22:21:50.655Z,101045.95
2018-03-04T22:26:32.676Z,101057.11
2018-03-04T22:29:01.646Z,101053.69
2018-03-04T22:31:30.676Z,101052.74
2018-03-04T22:33:59.644Z,101054.19
2018-03-04T22:36:28.650Z,101044.80
2018-03-04T22:38:58.182Z,101044.41
2018-03-04T22:41:27.426Z,101044.52
2018-03-04T22:43:56.654Z,101049.44
2018-03-04T22:46:25.698Z,101050.76
2018-03-04T22:48:54.640Z,101040.22
2018-03-04T22:51:23.670Z,101048.27
2018-03-04T22:53:52.640Z,101047.49
2018-03-04T22:56:21.679Z,101047.00
2018-03-04T22:58:50.657Z,101060.05
2018-03-04T23:01:19.682Z,101066.84
2018-03-04T23:03:48.622Z,101077.61
2018-03-04T23:06:17.623Z,101081.98
2018-03-04T23:08:46.599Z,101097.89
2018-03-04T23:11:15.623Z,101095.86
2018-03-04T23:13:44.649Z,101092.61
2018-03-04T23:16:13.623Z,101089.83
2018-03-04T23:18:52.669Z,101098.66
2018-03-04T23:21:21.635Z,101100.84
2018-03-04T23:23:50.597Z,101092.44
2018-03-04T23:26:19.669Z,101091.09
2018-03-04T23:28:48.687Z,101102.02
2018-03-04T23:31:17.636Z,101102.55
2018-03-04T23:33:46.607Z,101110.38
2018-03-04T23:36:15.623Z,101114.64
2018-03-04T23:38:44.652Z,101116.28
2018-03-04T23:41:14.439Z,101115.78
2018-03-04T23:45:12.154Z,101120.33
2018-03-04T23:50:11.686Z,101112.27
2018-03-04T23:52:40.751Z,101104.14
2018-03-04T23:55:09.677Z,101095.70
2018-03-04T23:57:38.648Z,101094.61
